Time;durP1;ratioP1;P1;durP2;ratioP2;P2;SDS_P1;SDS_P2;PMS_P1;PMS_P2;Temp;Humidity;BMP_temperature;BMP_pressure;BME280_temperature;BME280_humidity;BME280_pressure;Samples;Min_cycle;Max_cycle;Signal;HPM_P1;HPM_P2
2022/06/23 04:01:32;;;;;;;4.20;2.67;;;19.60;96.30;;;;;;5634834;23;20511;-82
2022/06/23 04:04:17;;;;;;;6.93;2.57;;;19.20;96.30;;;;;;4997906;28;20518;-82
2022/06/23 04:06:51;;;;;;;4.30;2.50;;;19.50;96.30;;;;;;4982659;28;20415;-82
2022/06/23 04:09:26;;;;;;;5.00;4.40;;;19.80;95.80;;;;;;4998635;28;20397;-82
2022/06/23 04:12:13;;;;;;;2.73;2.40;;;20.00;95.80;;;;;;4995569;28;20420;-81
2022/06/23 04:14:51;;;;;;;2.63;2.20;;;20.40;94.80;;;;;;4978416;28;20893;-81
2022/06/23 04:17:26;;;;;;;4.83;2.73;;;20.90;92.90;;;;;;4996974;28;20405;-78
2022/06/23 04:20:22;;;;;;;2.60;2.33;;;21.10;92.50;;;;;;4996544;28;20412;-77
2022/06/23 04:23:02;;;;;;;3.47;3.17;;;21.00;92.90;;;;;;4971642;28;20421;-78
2022/06/23 04:26:12;;;;;;;7.27;4.80;;;21.60;90.90;;;;;;4990371;28;20413;-77
2022/06/23 04:28:57;;;;;;;12.33;8.10;;;22.10;89.30;;;;;;4951470;28;20440;-78
2022/06/23 04:31:30;;;;;;;16.87;10.40;;;22.80;86.30;;;;;;4995331;28;20428;-77
2022/06/23 04:33:57;;;;;;;17.10;12.00;;;22.60;86.30;;;;;;4994877;28;20927;-76
2022/06/23 04:36:26;;;;;;;14.80;11.47;;;22.70;86.10;;;;;;4994868;28;20463;-76
2022/06/23 04:39:01;;;;;;;17.23;10.27;;;22.90;85.60;;;;;;4994220;28;20409;-75
2022/06/23 04:41:34;;;;;;;19.00;10.30;;;23.00;85.50;;;;;;4992050;28;20428;-76
2022/06/23 04:44:11;;;;;;;17.47;11.00;;;23.20;85.20;;;;;;4993155;28;20460;-77
2022/06/23 04:46:57;;;;;;;15.77;11.07;;;22.40;87.10;;;;;;4994488;28;20535;-76
2022/06/23 04:49:36;;;;;;;18.90;11.27;;;22.90;85.90;;;;;;4994380;28;20512;-77
2022/06/23 04:52:16;;;;;;;16.03;11.30;;;23.50;84.40;;;;;;4977177;28;20495;-77
2022/06/23 04:54:54;;;;;;;15.73;9.20;;;22.90;86.20;;;;;;4994869;28;20413;-76
2022/06/23 04:57:24;;;;;;;22.13;8.27;;;23.20;85.40;;;;;;4994934;28;20431;-76
2022/06/23 04:59:52;;;;;;;8.70;7.13;;;23.50;84.40;;;;;;4990282;28;20432;-77
2022/06/23 05:02:28;;;;;;;9.00;7.03;;;23.70;84.30;;;;;;4977416;28;20617;-77
2022/06/23 05:05:03;;;;;;;8.70;6.60;;;24.40;82.40;;;;;;4993046;28;20456;-77
2022/06/23 05:07:50;;;;;;;7.83;6.20;;;24.70;81.50;;;;;;4989759;28;20408;-77
2022/06/23 05:10:27;;;;;;;6.30;5.60;;;25.00;81.00;;;;;;4988719;28;20456;-76
2022/06/23 05:13:00;;;;;;;9.77;5.70;;;25.20;79.80;;;;;;4974743;28;20405;-77
2022/06/23 05:15:42;;;;;;;8.73;5.73;;;25.30;79.50;;;;;;4974887;28;20409;-76
2022/06/23 05:18:15;;;;;;;7.27;5.20;;;24.40;81.70;;;;;;4974560;28;20401;-77
2022/06/23 05:20:47;;;;;;;7.00;4.63;;;24.50;81.70;;;;;;4974666;28;20425;-77
2022/06/23 05:23:27;;;;;;;9.47;5.00;;;26.00;78.00;;;;;;4986391;28;20556;-77
2022/06/23 05:25:56;;;;;;;5.33;4.53;;;26.00;78.30;;;;;;4976585;28;20428;-77
2022/06/23 05:28:28;;;;;;;6.70;4.10;;;26.40;77.80;;;;;;4993756;28;20438;-78
2022/06/23 05:30:57;;;;;;;8.80;4.47;;;26.70;76.60;;;;;;4993728;28;20438;-77
2022/06/23 05:33:27;;;;;;;6.53;3.87;;;26.80;76.60;;;;;;4993595;28;21023;-77
2022/06/23 05:35:59;;;;;;;7.70;3.60;;;27.00;76.70;;;;;;4993514;28;20423;-77
2022/06/23 05:38:46;;;;;;;3.70;3.20;;;27.10;76.10;;;;;;4993309;28;20420;-77
2022/06/23 05:41:26;;;;;;;5.93;3.40;;;26.90;76.20;;;;;;4993638;28;20438;-78
2022/06/23 05:43:54;;;;;;;6.33;3.53;;;27.80;74.30;;;;;;4974575;28;20476;-79
2022/06/23 05:46:23;;;;;;;4.77;2.67;;;27.80;74.00;;;;;;4956957;28;20428;-79
2022/06/23 05:49:01;;;;;;;3.60;2.80;;;28.00;73.20;;;;;;4973998;28;20408;-79
2022/06/23 05:51:40;;;;;;;7.33;3.00;;;27.20;75.30;;;;;;4974269;28;20432;-77
2022/06/23 05:54:06;;;;;;;3.03;2.63;;;28.10;73.10;;;;;;4993390;28;21214;-77
2022/06/23 05:56:58;;;;;;;5.47;3.00;;;28.40;73.40;;;;;;4992975;28;20420;-77
2022/06/23 05:59:35;;;;;;;5.30;2.90;;;29.30;70.70;;;;;;4990861;28;20177;-77
2022/06/23 06:02:11;;;;;;;3.80;2.53;;;29.60;70.20;;;;;;4993028;28;20473;-77
2022/06/23 06:04:51;;;;;;;3.30;2.40;;;29.80;70.10;;;;;;4987080;28;20479;-77
2022/06/23 06:07:21;;;;;;;7.00;2.77;;;29.80;69.50;;;;;;4992291;28;20887;-77
2022/06/23 06:09:47;;;;;;;3.43;2.43;;;30.50;68.50;;;;;;4990804;28;20431;-77
2022/06/23 06:12:20;;;;;;;4.93;2.90;;;30.50;68.20;;;;;;4993668;28;20440;-78
2022/06/23 06:14:51;;;;;;;3.40;2.77;;;30.40;68.80;;;;;;4993420;28;20196;-77
2022/06/23 06:17:24;;;;;;;9.10;3.23;;;30.50;67.80;;;;;;4973596;28;20498;-79
2022/06/23 06:19:53;;;;;;;12.88;4.55;;;28.90;71.80;;;;;;4993342;28;20203;-78
2022/06/23 06:22:46;;;;;;;5.15;4.35;;;28.80;71.70;;;;;;4994025;28;20197;-75
2022/06/23 06:25:39;;;;;;;7.15;3.38;;;28.60;72.50;;;;;;4994247;28;20181;-75
2022/06/23 06:28:21;;;;;;;4.70;3.72;;;30.30;69.30;;;;;;4993200;28;20189;-75
2022/06/23 06:31:02;;;;;;;14.50;6.10;;;29.80;69.20;;;;;;4994236;28;20188;-77
2022/06/23 06:33:49;;;;;;;5.65;3.25;;;30.30;68.90;;;;;;4977263;28;20169;-79
2022/06/23 06:36:34;;;;;;;3.03;2.63;;;32.00;65.50;;;;;;4994476;28;20676;-77
2022/06/23 06:39:28;;;;;;;5.55;2.97;;;33.20;62.00;;;;;;4994604;28;20188;-77
2022/06/23 06:42:14;;;;;;;6.22;2.92;;;32.90;62.30;;;;;;4994943;28;20260;-77
2022/06/23 06:44:47;;;;;;;14.23;3.95;;;32.80;63.80;;;;;;4977599;28;20243;-77
2022/06/23 06:47:28;;;;;;;6.38;2.80;;;32.60;63.60;;;;;;4994656;28;20369;-78
2022/06/23 06:49:58;;;;;;;6.30;2.60;;;33.00;62.20;;;;;;4977670;28;20188;-78
2022/06/23 06:52:26;;;;;;;7.03;2.22;;;31.60;63.40;;;;;;4980291;28;20582;-79
2022/06/23 06:54:58;;;;;;;5.82;2.65;;;32.60;62.80;;;;;;4978877;28;20209;-77
2022/06/23 06:57:35;;;;;;;6.18;1.80;;;33.00;59.20;;;;;;4997104;28;20224;-77
2022/06/23 07:00:08;;;;;;;5.43;2.70;;;32.70;57.40;;;;;;4979019;28;20703;-78
2022/06/23 07:02:40;;;;;;;3.30;2.10;;;32.50;59.90;;;;;;4996033;28;20633;-78
2022/06/23 07:05:17;;;;;;;2.28;1.75;;;33.40;56.40;;;;;;4996579;28;20200;-78
2022/06/23 07:07:47;;;;;;;3.30;2.08;;;33.90;53.90;;;;;;4978398;28;20312;-77
2022/06/23 07:10:23;;;;;;;4.47;1.67;;;34.90;55.50;;;;;;4996319;28;20172;-78
2022/06/23 07:12:54;;;;;;;2.28;2.00;;;34.00;54.40;;;;;;4977665;28;20212;-78
2022/06/23 07:15:31;;;;;;;4.60;2.03;;;34.10;55.40;;;;;;4995666;28;20172;-78
2022/06/23 07:17:59;;;;;;;3.10;1.70;;;34.70;54.70;;;;;;4994965;28;20204;-78
2022/06/23 07:20:52;;;;;;;1.95;1.63;;;35.80;54.50;;;;;;4994818;28;20197;-78
2022/06/23 07:23:23;;;;;;;3.92;1.67;;;36.20;55.40;;;;;;4976882;28;20212;-78
2022/06/23 07:25:56;;;;;;;3.30;1.75;;;36.00;54.60;;;;;;4993698;28;20563;-78
2022/06/23 07:28:27;;;;;;;3.95;1.95;;;35.10;54.70;;;;;;4976339;28;20189;-77
2022/06/23 07:30:57;;;;;;;2.55;1.90;;;34.00;56.90;;;;;;4975217;28;20292;-78
2022/06/23 07:33:58;;;;;;;2.75;1.77;;;34.20;56.60;;;;;;4975372;28;20657;-77
2022/06/23 07:36:47;;;;;;;4.10;2.10;;;34.30;56.60;;;;;;4975603;28;20211;-77
2022/06/23 07:39:18;;;;;;;5.00;2.00;;;34.10;58.10;;;;;;4974334;28;20282;-78
2022/06/23 07:41:55;;;;;;;3.97;1.70;;;34.50;56.20;;;;;;4992553;28;20212;-79
2022/06/23 07:44:26;;;;;;;5.43;2.30;;;34.50;57.90;;;;;;4974958;28;20205;-78
2022/06/23 07:46:52;;;;;;;2.65;1.95;;;33.80;58.00;;;;;;4975349;28;20173;-78
2022/06/23 07:49:17;;;;;;;4.07;1.85;;;33.30;59.60;;;;;;4975009;28;20177;-78
2022/06/23 07:51:43;;;;;;;4.28;2.13;;;33.10;57.90;;;;;;4992532;28;20199;-77
2022/06/23 07:54:18;;;;;;;5.78;2.20;;;33.40;58.00;;;;;;4975068;28;20649;-77
2022/06/23 07:56:44;;;;;;;8.32;1.95;;;34.10;59.00;;;;;;4994411;28;20180;-79
2022/06/23 07:59:17;;;;;;;8.00;3.00;;;34.80;57.90;;;;;;4995615;28;20181;-74
2022/06/23 08:01:52;;;;;;;9.60;2.15;;;35.10;56.50;;;;;;4981134;28;20213;-77
2022/06/23 08:04:50;;;;;;;8.80;2.13;;;35.40;57.40;;;;;;4981621;28;20299;-75
2022/06/23 08:07:16;;;;;;;11.05;2.33;;;34.80;56.50;;;;;;4999291;28;20212;-75
2022/06/23 08:09:49;;;;;;;21.48;3.38;;;34.00;59.60;;;;;;4981581;28;20181;-76
2022/06/23 08:18:26;;;;;;;4.70;2.40;;;33.50;59.10;;;;;;4998740;28;20195;-75
2022/06/23 08:21:02;;;;;;;15.80;2.60;;;33.20;57.40;;;;;;5000475;28;20239;-76
2022/06/23 08:23:33;;;;;;;3.60;1.70;;;33.60;56.90;;;;;;4999486;28;20209;-76
2022/06/23 08:26:00;;;;;;;6.37;1.70;;;33.50;56.40;;;;;;5000303;28;20252;-76
2022/06/23 08:28:26;;;;;;;13.33;1.90;;;34.20;57.70;;;;;;4999370;28;20173;-77
2022/06/23 08:30:51;;;;;;;8.43;2.03;;;33.70;55.90;;;;;;4999458;28;20428;-75
2022/06/23 08:33:17;;;;;;;3.43;1.97;;;33.80;59.00;;;;;;4999637;28;20184;-77
2022/06/23 08:35:47;;;;;;;5.47;2.57;;;34.50;58.40;;;;;;4982655;28;20311;-78
2022/06/23 08:38:31;;;;;;;3.43;2.13;;;35.00;56.10;;;;;;4998598;28;20216;-79
2022/06/23 08:41:36;;;;;;;4.90;1.77;;;34.30;54.90;;;;;;4995326;28;20436;-79
2022/06/23 08:44:18;;;;;;;8.40;2.80;;;33.80;55.80;;;;;;4995144;28;20467;-79
2022/06/23 08:47:19;;;;;;;5.90;2.00;;;33.20;56.80;;;;;;4995183;28;20399;-79
2022/06/23 08:50:03;;;;;;;4.47;2.40;;;32.40;59.90;;;;;;4964825;28;20443;-79
2022/06/23 08:52:39;;;;;;;9.97;2.00;;;32.30;57.80;;;;;;4977581;28;21142;-78
2022/06/23 08:55:13;;;;;;;2.80;1.90;;;32.80;58.80;;;;;;4995235;28;20412;-79
2022/06/23 08:58:01;;;;;;;6.23;2.20;;;33.30;59.20;;;;;;4994725;28;20418;-79
2022/06/23 09:01:02;;;;;;;5.57;2.10;;;32.80;57.80;;;;;;4994657;28;20413;-78
2022/06/23 09:03:43;;;;;;;5.53;2.03;;;32.90;58.80;;;;;;4995240;28;20448;-78
2022/06/23 09:06:27;;;;;;;3.07;2.10;;;33.20;58.40;;;;;;4995235;28;20397;-79
2022/06/23 09:09:21;;;;;;;3.10;2.17;;;33.60;57.40;;;;;;4995000;28;20427;-79
2022/06/23 09:11:56;;;;;;;9.33;2.20;;;33.10;57.70;;;;;;4983677;28;20450;-78
2022/06/23 09:14:40;;;;;;;6.40;2.40;;;33.00;57.00;;;;;;4977598;28;20420;-79
2022/06/23 09:17:26;;;;;;;14.27;2.27;;;33.10;59.90;;;;;;4994554;28;20440;-78
2022/06/23 09:19:51;;;;;;;4.70;2.20;;;33.20;60.40;;;;;;4999309;28;20499;-78
2022/06/23 09:22:17;;;;;;;4.83;1.97;;;33.40;58.90;;;;;;4998631;28;20467;-78
2022/06/23 09:24:57;;;;;;;3.13;2.07;;;33.80;55.20;;;;;;4995195;28;20280;-78
2022/06/23 09:27:36;;;;;;;9.30;2.13;;;33.30;55.90;;;;;;4994736;28;20227;-81
2022/06/23 09:30:20;;;;;;;5.53;2.10;;;33.00;57.20;;;;;;4995899;28;20432;-80
2022/06/23 09:32:55;;;;;;;3.97;2.60;;;32.70;56.50;;;;;;4995679;28;20798;-80
2022/06/23 09:35:47;;;;;;;6.07;2.00;;;32.90;58.30;;;;;;4997692;28;20483;-80
2022/06/23 09:38:24;;;;;;;4.73;2.33;;;33.70;56.80;;;;;;4998385;28;20849;-80
2022/06/23 09:41:08;;;;;;;8.30;2.13;;;32.70;56.10;;;;;;4997662;28;20435;-80
2022/06/23 09:43:58;;;;;;;4.03;2.17;;;33.10;56.70;;;;;;4981244;28;20596;-80
2022/06/23 09:46:56;;;;;;;4.47;2.33;;;33.40;56.90;;;;;;4998656;28;20404;-79
2022/06/23 09:49:51;;;;;;;2.37;1.80;;;32.40;57.10;;;;;;4997026;28;20511;-80
2022/06/23 09:52:39;;;;;;;8.63;2.30;;;32.50;57.80;;;;;;4981020;28;20445;-80
2022/06/23 09:55:19;;;;;;;4.30;2.00;;;31.70;57.40;;;;;;4997360;28;20499;-80
2022/06/23 09:58:00;;;;;;;7.77;2.13;;;32.10;60.00;;;;;;4996149;28;20459;-80
2022/06/23 10:00:37;;;;;;;3.80;2.20;;;31.50;58.00;;;;;;4979893;28;20428;-80
2022/06/23 10:03:31;;;;;;;9.43;1.90;;;31.20;59.40;;;;;;4998909;28;20420;-79
2022/06/23 10:06:28;;;;;;;2.73;1.77;;;31.30;61.50;;;;;;4998822;28;20405;-79
2022/06/23 10:08:59;;;;;;;4.27;1.80;;;31.70;60.40;;;;;;4980848;28;20417;-80
2022/06/23 10:11:51;;;;;;;3.10;2.03;;;32.20;57.00;;;;;;4998854;28;20432;-80
2022/06/23 10:14:58;;;;;;;5.13;2.10;;;31.80;62.00;;;;;;4980526;28;20416;-80
2022/06/23 10:17:51;;;;;;;4.20;1.80;;;32.60;58.70;;;;;;4994231;28;20422;-81
2022/06/23 10:48:49;;;;;;;7.13;1.60;;;32.30;54.30;;;;;;5758411;22;20481;-79
2022/06/23 10:51:23;;;;;;;2.57;1.70;;;32.40;55.50;;;;;;5025084;28;20957;-79
2022/06/23 10:53:52;;;;;;;3.90;2.03;;;31.60;55.50;;;;;;5013229;28;20453;-79
2022/06/23 10:56:38;;;;;;;4.60;2.20;;;31.30;55.30;;;;;;5012774;28;20439;-79
2022/06/23 10:59:19;;;;;;;3.20;1.97;;;31.70;58.50;;;;;;4993367;28;20412;-79
2022/06/23 11:02:14;;;;;;;2.40;1.57;;;31.80;58.20;;;;;;4993792;28;20434;-77
2022/06/23 11:05:15;;;;;;;5.33;1.90;;;30.80;57.30;;;;;;4974859;28;20452;-79
2022/06/23 11:08:07;;;;;;;8.07;2.40;;;31.00;57.00;;;;;;4992603;28;20400;-79
2022/06/23 11:10:58;;;;;;;4.17;2.00;;;31.30;55.70;;;;;;4999105;28;20435;-79
2022/06/23 11:13:41;;;;;;;7.07;1.90;;;31.90;56.20;;;;;;5012877;28;20407;-79
2022/06/23 11:16:07;;;;;;;4.20;1.97;;;31.80;57.40;;;;;;5012605;28;20462;-79
2022/06/23 11:18:38;;;;;;;6.07;2.00;;;32.60;59.30;;;;;;4994667;28;20458;-79
2022/06/23 11:21:20;;;;;;;4.83;1.73;;;32.40;56.20;;;;;;5016638;28;20270;-79
2022/06/23 11:24:12;;;;;;;1.77;1.50;;;32.50;57.10;;;;;;5016471;28;20463;-79
2022/06/23 11:26:59;;;;;;;2.70;1.53;;;32.20;55.00;;;;;;5016156;28;20411;-79
2022/06/23 11:29:51;;;;;;;2.73;1.93;;;31.90;57.60;;;;;;5018017;28;20396;-80
2022/06/23 11:32:35;;;;;;;3.37;1.50;;;31.40;56.00;;;;;;5018434;28;20419;-79
2022/06/23 11:35:24;;;;;;;4.40;1.70;;;32.10;56.90;;;;;;5002677;28;20427;-80
2022/06/23 11:38:02;;;;;;;9.00;1.70;;;32.10;56.60;;;;;;5023499;28;20415;-80
2022/06/23 11:40:54;;;;;;;2.20;1.97;;;32.40;58.10;;;;;;5021945;28;20407;-80
2022/06/23 11:43:52;;;;;;;5.73;1.50;;;32.80;54.40;;;;;;5020282;28;20447;-80
2022/06/23 11:46:29;;;;;;;7.10;1.97;;;31.80;58.00;;;;;;5020157;28;20422;-80
2022/06/23 11:49:11;;;;;;;3.67;1.77;;;32.60;57.90;;;;;;5020174;28;20422;-80
2022/06/23 11:51:50;;;;;;;3.20;2.07;;;33.60;53.90;;;;;;5019633;28;20423;-80
2022/06/23 11:54:27;;;;;;;12.30;1.90;;;33.70;53.00;;;;;;5018990;28;20172;-80
2022/06/23 11:57:28;;;;;;;2.83;1.90;;;33.60;55.30;;;;;;5002453;28;20852;-80
2022/06/23 12:00:10;;;;;;;2.93;1.63;;;32.70;53.50;;;;;;5002486;28;20238;-80
2022/06/23 12:03:01;;;;;;;2.53;1.40;;;32.50;54.60;;;;;;5014460;28;20203;-80
2022/06/23 12:06:04;;;;;;;5.73;1.87;;;32.40;55.20;;;;;;5018770;28;20454;-80
2022/06/23 12:09:00;;;;;;;4.10;1.57;;;31.90;55.70;;;;;;5000476;28;20422;-80
2022/06/23 12:11:28;;;;;;;3.63;2.10;;;31.50;54.70;;;;;;5019206;28;20432;-80
2022/06/23 12:13:57;;;;;;;4.80;1.90;;;31.50;56.10;;;;;;5020179;28;20419;-80
2022/06/23 12:16:22;;;;;;;2.90;1.70;;;32.00;57.00;;;;;;5020160;28;20419;-80
2022/06/23 12:18:54;;;;;;;2.63;1.83;;;31.90;55.20;;;;;;5019506;28;20430;-80
2022/06/23 12:21:36;;;;;;;2.47;1.93;;;32.10;54.00;;;;;;5020162;28;20242;-80
2022/06/23 12:24:21;;;;;;;4.57;2.00;;;32.70;57.60;;;;;;5020553;28;21073;-80
2022/06/23 12:27:12;;;;;;;3.47;2.40;;;32.60;53.90;;;;;;5020753;28;20411;-79
2022/06/23 12:29:48;;;;;;;4.77;2.10;;;32.10;53.70;;;;;;5018539;28;20435;-79
2022/06/23 12:32:21;;;;;;;4.33;2.00;;;31.80;54.70;;;;;;5018623;28;20434;-79
2022/06/23 12:34:58;;;;;;;2.90;1.93;;;32.20;54.20;;;;;;5019281;28;20415;-80
2022/06/23 12:37:43;;;;;;;2.33;1.70;;;32.60;54.30;;;;;;5019044;28;20482;-80
2022/06/23 12:40:30;;;;;;;2.83;1.97;;;32.70;54.90;;;;;;5015243;28;20419;-79
2022/06/23 12:43:08;;;;;;;3.00;2.00;;;31.70;57.70;;;;;;5000349;28;20458;-79
2022/06/23 12:46:03;;;;;;;2.90;1.90;;;31.30;56.60;;;;;;5018494;28;20431;-79
2022/06/23 12:48:53;;;;;;;6.20;2.47;;;31.60;57.10;;;;;;4999945;28;20506;-80
2022/06/23 12:51:48;;;;;;;2.50;1.97;;;31.90;57.50;;;;;;5000664;28;20467;-80
2022/06/23 12:54:17;;;;;;;4.10;2.10;;;31.80;57.00;;;;;;5019266;28;20403;-80
2022/06/23 12:57:20;;;;;;;2.67;2.20;;;31.90;55.80;;;;;;5000957;28;20469;-80
2022/06/23 13:00:07;;;;;;;2.83;2.17;;;32.10;56.70;;;;;;5019419;28;20415;-79
2022/06/23 13:02:54;;;;;;;6.90;2.40;;;32.30;55.90;;;;;;5000312;28;20447;-80
2022/06/23 13:05:28;;;;;;;3.77;2.00;;;32.10;53.70;;;;;;5018820;28;20423;-80
2022/06/23 13:08:22;;;;;;;3.30;2.33;;;32.10;55.80;;;;;;5016859;28;20416;-79
2022/06/23 13:11:01;;;;;;;7.07;2.20;;;31.90;54.80;;;;;;5000117;28;20482;-80
2022/06/23 13:13:35;;;;;;;13.97;2.70;;;31.50;56.60;;;;;;5017704;28;20439;-79
2022/06/23 13:16:10;;;;;;;3.93;2.87;;;31.50;56.90;;;;;;5016155;28;20805;-79
2022/06/23 13:18:41;;;;;;;4.77;2.30;;;31.50;56.20;;;;;;5016103;28;20439;-79
2022/06/23 13:21:13;;;;;;;8.13;2.50;;;31.50;56.20;;;;;;5007237;28;20453;-79
2022/06/23 13:23:44;;;;;;;8.67;2.70;;;31.60;55.70;;;;;;5016093;28;20443;-79
2022/06/23 13:26:26;;;;;;;6.07;2.70;;;32.10;59.90;;;;;;5000439;28;20923;-79
2022/06/23 13:29:08;;;;;;;9.43;3.00;;;32.50;57.80;;;;;;5001170;28;20419;-80
2022/06/23 13:31:44;;;;;;;11.70;3.00;;;33.20;54.80;;;;;;5017863;28;20960;-79
2022/06/23 13:34:15;;;;;;;4.43;2.70;;;32.70;54.20;;;;;;5018506;28;20422;-80
2022/06/23 13:36:53;;;;;;;10.93;2.83;;;32.80;54.40;;;;;;5017873;28;20506;-80
2022/06/23 13:39:36;;;;;;;3.43;2.67;;;32.20;54.60;;;;;;5015477;28;21040;-77
2022/06/23 13:42:19;;;;;;;3.77;2.90;;;32.50;54.80;;;;;;5004463;28;20447;-77
2022/06/23 13:45:06;;;;;;;4.97;2.87;;;32.60;55.20;;;;;;4998471;28;20255;-77
2022/06/23 13:47:42;;;;;;;4.80;2.87;;;33.30;57.60;;;;;;5011257;28;20180;-81
2022/06/23 13:50:24;;;;;;;3.00;2.70;;;33.80;54.60;;;;;;5009204;28;20206;-80
2022/06/23 13:53:16;;;;;;;4.10;2.53;;;33.70;53.80;;;;;;5017440;28;20168;-77
2022/06/23 13:55:55;;;;;;;3.90;2.88;;;33.60;53.10;;;;;;5014719;28;20189;-79
2022/06/23 13:58:33;;;;;;;4.68;2.35;;;33.30;53.40;;;;;;5016238;28;20632;-77
2022/06/23 14:01:14;;;;;;;5.25;2.53;;;33.60;55.20;;;;;;5017196;28;20218;-77
2022/06/23 14:03:50;;;;;;;3.10;2.08;;;34.20;53.90;;;;;;5015628;28;20612;-77
2022/06/23 14:06:30;;;;;;;5.90;2.20;;;33.60;53.30;;;;;;5013851;28;20176;-78
2022/06/23 14:09:17;;;;;;;3.97;2.20;;;32.70;54.90;;;;;;5014065;28;20164;-80
2022/06/23 14:11:54;;;;;;;4.13;2.30;;;32.70;55.00;;;;;;5013208;28;20485;-77
2022/06/23 14:14:26;;;;;;;4.37;2.40;;;32.50;54.60;;;;;;5012012;28;20500;-78
2022/06/23 14:17:06;;;;;;;6.43;2.93;;;32.20;55.30;;;;;;5013398;28;20411;-77
2022/06/23 14:19:56;;;;;;;4.70;2.30;;;32.50;55.10;;;;;;5013996;28;20973;-78
2022/06/23 14:22:40;;;;;;;6.10;2.30;;;32.30;53.80;;;;;;5013600;28;20437;-78
2022/06/23 14:25:41;;;;;;;5.43;2.70;;;32.90;54.20;;;;;;5013629;28;20438;-77
2022/06/23 14:28:41;;;;;;;3.87;2.33;;;32.70;54.90;;;;;;4932969;29;20451;-79
2022/06/23 14:31:14;;;;;;;4.60;2.30;;;33.10;54.20;;;;;;4995825;28;20446;-78
2022/06/23 14:33:48;;;;;;;9.97;2.60;;;32.80;53.60;;;;;;5013021;28;20743;-77
2022/06/23 14:36:30;;;;;;;4.93;2.90;;;33.10;53.30;;;;;;5013172;28;20184;-78
2022/06/23 14:39:26;;;;;;;8.13;2.30;;;33.00;54.00;;;;;;5011565;28;20454;-78
2022/06/23 14:41:54;;;;;;;5.33;2.53;;;32.80;54.20;;;;;;5019308;28;20208;-80
2022/06/23 14:45:02;;;;;;;5.70;2.23;;;32.40;53.70;;;;;;5020177;28;20458;-80
2022/06/23 14:47:40;;;;;;;5.13;2.43;;;32.20;54.40;;;;;;5019554;28;20411;-80
2022/06/23 14:50:25;;;;;;;5.43;2.40;;;32.00;54.90;;;;;;5020080;28;20790;-81
2022/06/23 14:53:12;;;;;;;4.00;2.07;;;31.70;54.60;;;;;;5020581;28;20434;-80
2022/06/23 14:56:16;;;;;;;12.73;2.60;;;31.90;55.10;;;;;;5019853;28;20754;-81
2022/06/23 14:58:51;;;;;;;3.27;2.27;;;31.50;55.20;;;;;;5019608;28;20403;-81
2022/06/23 15:02:02;;;;;;;6.33;2.77;;;31.60;54.40;;;;;;5018355;28;20434;-80
2022/06/23 15:04:37;;;;;;;3.40;2.30;;;31.70;54.30;;;;;;5018370;28;20459;-80
2022/06/23 15:07:36;;;;;;;4.77;2.60;;;31.70;55.00;;;;;;5020667;28;20411;-80
2022/06/23 15:10:07;;;;;;;7.73;2.33;;;31.60;54.10;;;;;;5019998;28;20439;-81
2022/06/23 15:12:47;;;;;;;5.60;2.37;;;32.10;54.00;;;;;;5022307;28;20423;-81
2022/06/23 15:15:28;;;;;;;6.23;2.37;;;32.30;53.60;;;;;;5020959;28;20423;-81
2022/06/23 15:18:16;;;;;;;6.10;2.97;;;32.10;53.40;;;;;;5021387;28;20442;-81
2022/06/23 15:23:09;;;;;;;4.07;1.87;;;32.50;54.30;;;;;;5021573;28;20510;-81
2022/06/23 15:23:55;;;;;;;2.47;2.00;;;32.60;54.20;;;;;;5022571;28;20466;-81
2022/06/23 15:26:26;;;;;;;7.03;2.90;;;32.60;54.10;;;;;;5024490;28;20430;-80
2022/06/23 15:29:06;;;;;;;5.60;2.40;;;32.60;52.80;;;;;;5019817;28;20450;-81
2022/06/23 15:32:26;;;;;;;12.53;2.40;;;32.20;52.70;;;;;;5020500;28;20489;-81
2022/06/23 15:34:59;;;;;;;8.50;2.60;;;32.20;53.40;;;;;;4921532;29;20507;-81
2022/06/23 15:37:43;;;;;;;5.70;2.30;;;32.00;53.80;;;;;;5018445;28;20419;-81
2022/06/23 15:40:37;;;;;;;2.20;2.00;;;31.60;54.00;;;;;;5004411;28;20415;-81
2022/06/23 15:43:15;;;;;;;2.80;1.80;;;31.30;54.60;;;;;;5021978;28;20422;-80
2022/06/23 15:45:58;;;;;;;12.63;2.57;;;31.50;53.10;;;;;;5004966;28;20799;-81
2022/06/23 15:48:34;;;;;;;3.77;1.97;;;31.60;54.20;;;;;;5021014;28;20422;-81
2022/06/23 15:51:06;;;;;;;5.93;2.33;;;31.80;53.50;;;;;;5021745;28;20438;-80
2022/06/23 15:53:54;;;;;;;1.80;1.60;;;31.80;53.60;;;;;;5004086;28;20411;-81
2022/06/23 15:56:26;;;;;;;4.57;1.80;;;31.60;53.90;;;;;;5004224;28;20420;-81
2022/06/23 15:59:16;;;;;;;2.30;1.87;;;31.10;54.90;;;;;;5022562;28;20419;-81
2022/06/23 16:01:51;;;;;;;5.07;2.00;;;31.00;54.60;;;;;;5021249;28;20438;-80
2022/06/23 16:04:24;;;;;;;8.10;1.70;;;31.20;54.50;;;;;;5021917;28;20489;-81
2022/06/23 16:06:54;;;;;;;3.93;1.93;;;31.30;53.00;;;;;;5021449;28;20412;-81
2022/06/23 16:09:41;;;;;;;2.30;1.63;;;31.20;55.10;;;;;;5020892;28;20412;-80
2022/06/23 16:12:35;;;;;;;7.97;2.10;;;30.90;53.10;;;;;;5004288;28;20804;-81
2022/06/23 16:15:06;;;;;;;6.80;2.90;;;30.90;53.80;;;;;;5003929;28;20462;-80
2022/06/23 16:17:49;;;;;;;7.53;1.83;;;30.70;54.00;;;;;;5020968;28;20904;-81
2022/06/23 16:20:19;;;;;;;4.70;1.90;;;30.90;54.30;;;;;;5022129;28;20475;-81
2022/06/23 16:22:57;;;;;;;6.10;1.53;;;30.70;54.70;;;;;;5001344;28;20447;-80
2022/06/23 16:25:52;;;;;;;3.57;1.67;;;30.80;54.60;;;;;;5002056;28;20462;-79
2022/06/23 16:28:25;;;;;;;1.97;1.77;;;30.90;54.40;;;;;;5010224;28;20416;-76
2022/06/23 16:30:52;;;;;;;3.00;1.90;;;30.70;54.20;;;;;;5014573;28;20494;-77
2022/06/23 16:33:27;;;;;;;4.07;2.17;;;30.70;54.30;;;;;;5014684;28;20435;-76
2022/06/23 16:36:00;;;;;;;2.90;1.83;;;30.60;54.90;;;;;;5014305;28;20407;-77
2022/06/23 16:38:49;;;;;;;8.50;1.63;;;30.80;53.40;;;;;;5014000;28;20443;-76
2022/06/23 16:41:37;;;;;;;4.60;2.20;;;30.80;53.30;;;;;;5014542;28;20423;-77
2022/06/23 16:44:22;;;;;;;4.00;1.50;;;30.40;54.30;;;;;;5014467;28;20482;-77
2022/06/23 16:47:10;;;;;;;2.27;1.60;;;30.00;55.00;;;;;;5014543;28;20412;-78
2022/06/23 16:50:08;;;;;;;7.43;1.90;;;29.90;54.30;;;;;;5014144;28;20518;-77
2022/06/23 16:52:55;;;;;;;1.70;1.60;;;29.50;55.30;;;;;;5013744;28;20458;-78
2022/06/23 16:55:45;;;;;;;2.80;2.07;;;29.60;55.10;;;;;;5014454;28;20415;-77
2022/06/23 16:58:10;;;;;;;3.00;1.77;;;29.60;55.40;;;;;;5012891;28;20513;-77
2022/06/23 17:00:56;;;;;;;2.83;1.63;;;29.60;55.20;;;;;;5014292;28;20622;-78
2022/06/23 17:03:45;;;;;;;4.50;2.17;;;29.30;55.80;;;;;;5024831;28;20183;-80
2022/06/23 17:06:26;;;;;;;3.50;1.70;;;29.40;56.10;;;;;;5022715;28;20423;-80
2022/06/23 17:09:12;;;;;;;3.80;1.70;;;29.50;56.20;;;;;;5019309;28;20487;-79
2022/06/23 17:11:48;;;;;;;4.13;1.83;;;29.30;56.10;;;;;;5000300;28;20626;-79
2022/06/23 17:14:17;;;;;;;7.33;1.50;;;29.30;56.80;;;;;;5014480;28;20415;-79
2022/06/23 17:16:53;;;;;;;8.03;2.00;;;29.00;56.70;;;;;;5018736;28;20498;-80
2022/06/23 17:19:25;;;;;;;6.43;1.77;;;28.90;57.50;;;;;;5022590;28;20403;-80
2022/06/23 18:10:21;;;;;;;3.43;1.80;;;27.40;59.70;;;;;;4975120;28;20424;-76
2022/06/23 18:13:00;;;;;;;3.13;1.67;;;27.30;60.20;;;;;;4973767;28;20495;-76
2022/06/23 18:15:34;;;;;;;1.93;1.73;;;27.10;60.30;;;;;;4973765;28;20437;-76
2022/06/23 18:18:21;;;;;;;7.43;1.90;;;26.90;60.80;;;;;;4956030;28;20503;-75
2022/06/23 18:20:59;;;;;;;3.40;1.70;;;26.70;61.00;;;;;;4973559;28;20424;-78
2022/06/23 18:23:47;;;;;;;6.43;2.33;;;26.70;60.80;;;;;;4973721;28;20476;-78
2022/06/23 18:26:34;;;;;;;4.87;1.70;;;26.50;61.50;;;;;;4973633;28;20457;-78
2022/06/23 18:29:15;;;;;;;4.30;1.70;;;26.50;61.50;;;;;;4973327;28;20413;-76
2022/06/23 18:31:59;;;;;;;3.30;1.77;;;26.20;62.40;;;;;;4973572;28;20491;-78
2022/06/23 18:34:51;;;;;;;7.10;1.73;;;26.00;63.00;;;;;;4956187;28;20421;-76
2022/06/23 18:37:25;;;;;;;3.83;1.77;;;25.90;63.70;;;;;;4949756;28;20457;-78
2022/06/23 18:40:18;;;;;;;4.90;1.47;;;25.70;63.40;;;;;;4973453;28;20402;-77
2022/06/23 18:42:57;;;;;;;5.60;1.67;;;25.50;63.20;;;;;;4956110;28;20519;-77
2022/06/23 18:45:46;;;;;;;8.53;1.57;;;25.30;63.20;;;;;;4972565;28;20445;-76
2022/06/23 18:48:24;;;;;;;10.73;1.60;;;25.10;63.70;;;;;;4973177;28;20433;-78
2022/06/23 18:50:57;;;;;;;7.20;1.67;;;25.00;63.60;;;;;;4973270;28;20425;-76
2022/06/23 18:53:44;;;;;;;7.63;1.80;;;25.00;63.40;;;;;;4973185;28;20928;-77
2022/06/23 18:56:15;;;;;;;2.80;1.53;;;24.90;64.40;;;;;;4973299;28;20493;-77
2022/06/23 18:59:02;;;;;;;11.13;1.60;;;24.80;63.50;;;;;;4955755;28;20417;-76
2022/06/23 19:01:50;;;;;;;8.63;1.70;;;24.70;63.80;;;;;;4973186;28;20459;-76
2022/06/23 19:04:47;;;;;;;4.83;1.80;;;24.60;65.60;;;;;;4955804;28;20794;-76
2022/06/23 19:07:28;;;;;;;4.90;1.67;;;24.20;66.20;;;;;;4973276;28;20466;-77
2022/06/23 19:10:01;;;;;;;2.87;1.53;;;24.00;66.30;;;;;;4973151;28;20435;-76
2022/06/23 19:12:34;;;;;;;2.60;1.80;;;23.90;65.90;;;;;;4972938;28;20977;-78
2022/06/23 19:15:18;;;;;;;8.23;1.83;;;23.80;66.00;;;;;;4973102;28;20405;-76
2022/06/23 19:17:47;;;;;;;12.80;2.23;;;23.70;66.80;;;;;;4972812;28;20405;-76